createdAt,value
2018-05-26T00:00:44.925Z,14.10
2018-05-26T00:03:42.926Z,14.00
2018-05-26T00:06:40.835Z,14.00
2018-05-26T00:09:38.571Z,14.10
2018-05-26T00:12:36.525Z,14.00
2018-05-26T00:15:34.623Z,14.10
2018-05-26T00:18:32.529Z,14.10
2018-05-26T00:21:30.441Z,14.10
2018-05-26T00:24:28.341Z,14.00
2018-05-26T00:27:26.285Z,13.90
2018-05-26T00:30:24.284Z,13.90
2018-05-26T00:33:22.430Z,13.70
2018-05-26T00:36:21.435Z,13.80
2018-05-26T00:39:19.272Z,13.80
2018-05-26T00:42:18.093Z,13.80
2018-05-26T00:45:16.052Z,13.80
2018-05-26T00:48:14.087Z,13.80
2018-05-26T00:51:11.266Z,13.70
2018-05-26T00:54:08.257Z,13.60
2018-05-26T00:57:06.047Z,13.60
2018-05-26T01:00:03.911Z,13.60
2018-05-26T01:03:09.820Z,13.50
2018-05-26T01:06:08.634Z,13.60
2018-05-26T01:09:05.778Z,13.50
2018-05-26T01:12:03.714Z,13.40
2018-05-26T01:15:00.977Z,13.40
2018-05-26T01:17:58.774Z,13.30
2018-05-26T01:20:56.862Z,13.10
2018-05-26T01:23:54.773Z,13.10
2018-05-26T01:26:52.686Z,13.00
2018-05-26T01:29:50.492Z,13.10
2018-05-26T01:32:48.339Z,13.00
2018-05-26T01:35:45.300Z,13.10
2018-05-26T01:38:42.215Z,13.00
2018-05-26T01:41:39.272Z,13.00
2018-05-26T01:44:36.961Z,12.90
2018-05-26T01:47:33.977Z,12.90
2018-05-26T01:50:31.975Z,12.80
2018-05-26T01:53:30.147Z,12.90
2018-05-26T01:56:28.212Z,12.90
2018-05-26T01:59:26.265Z,12.90
2018-05-26T02:02:24.141Z,12.80
2018-05-26T02:05:21.393Z,12.70
2018-05-26T02:08:19.759Z,12.90
2018-05-26T02:11:17.636Z,12.90
2018-05-26T02:14:15.417Z,13.00
2018-05-26T02:17:13.299Z,12.90
2018-05-26T02:20:10.273Z,13.00
2018-05-26T02:23:08.262Z,13.00
2018-05-26T02:26:06.005Z,13.00
2018-05-26T02:29:03.801Z,13.00
2018-05-26T02:32:01.365Z,13.00
2018-05-26T02:34:59.258Z,12.90
2018-05-26T02:37:56.986Z,13.00
2018-05-26T02:40:54.780Z,12.90
2018-05-26T02:43:52.399Z,12.90
2018-05-26T02:46:50.119Z,13.00
2018-05-26T02:49:47.939Z,12.90
2018-05-26T02:52:46.388Z,13.00
2018-05-26T02:55:43.538Z,12.90
2018-05-26T02:58:41.336Z,12.90
2018-05-26T03:01:39.118Z,12.90
2018-05-26T03:04:43.102Z,13.00
2018-05-26T03:07:47.118Z,13.00
2018-05-26T03:10:51.062Z,12.90
2018-05-26T03:13:55.243Z,12.80
2018-05-26T03:16:59.870Z,12.80
2018-05-26T03:19:57.715Z,12.90
2018-05-26T03:22:55.949Z,13.00
2018-05-26T03:25:53.878Z,13.10
2018-05-26T03:28:50.837Z,13.10
2018-05-26T03:31:48.267Z,13.10
2018-05-26T03:34:47.085Z,13.30
2018-05-26T03:37:44.895Z,13.20
2018-05-26T03:40:42.767Z,13.40
2018-05-26T03:43:40.612Z,13.40
2018-05-26T03:46:37.690Z,13.50
2018-05-26T03:49:35.667Z,13.60
2018-05-26T03:52:33.577Z,13.70
2018-05-26T03:55:52.549Z,13.70
2018-05-26T03:59:02.436Z,13.70
2018-05-26T04:02:00.499Z,13.80
2018-05-26T04:04:58.539Z,14.00
2018-05-26T04:07:55.780Z,14.10
2018-05-26T04:10:53.966Z,14.40
2018-05-26T04:13:51.721Z,14.30
2018-05-26T04:16:49.645Z,14.40
2018-05-26T04:19:47.451Z,14.50
2018-05-26T04:22:44.449Z,14.50
2018-05-26T04:25:42.365Z,14.60
2018-05-26T04:28:39.479Z,14.80
2018-05-26T04:31:36.690Z,15.00
2018-05-26T04:34:34.630Z,15.10
2018-05-26T04:37:32.418Z,15.00
2018-05-26T04:40:30.405Z,15.10
2018-05-26T04:43:28.165Z,15.40
2018-05-26T04:46:25.843Z,15.60
2018-05-26T04:49:22.857Z,15.50
2018-05-26T04:52:20.771Z,15.50
2018-05-26T04:55:18.885Z,15.50
2018-05-26T04:58:16.753Z,15.40
2018-05-26T05:01:14.578Z,15.60
2018-05-26T05:04:13.286Z,15.50
2018-05-26T05:07:11.332Z,15.70
2018-05-26T05:10:09.145Z,15.70
2018-05-26T05:13:07.052Z,15.90
2018-05-26T05:16:04.224Z,16.00
2018-05-26T05:19:02.419Z,16.20
2018-05-26T05:22:00.533Z,16.30
2018-05-26T05:24:58.567Z,16.50
2018-05-26T05:27:56.630Z,16.50
2018-05-26T05:30:54.839Z,16.70
2018-05-26T05:33:52.833Z,16.90
2018-05-26T05:36:50.737Z,16.90
2018-05-26T05:39:48.789Z,17.00
2018-05-26T05:42:45.768Z,17.00
2018-05-26T05:45:43.985Z,17.10
2018-05-26T05:48:41.964Z,17.10
2018-05-26T05:51:39.785Z,17.20
2018-05-26T05:54:37.401Z,17.20
2018-05-26T05:57:34.502Z,17.30
2018-05-26T06:00:32.475Z,17.40
2018-05-26T06:03:29.825Z,17.60
2018-05-26T06:06:27.705Z,17.80
2018-05-26T06:09:25.704Z,18.00
2018-05-26T06:12:24.475Z,18.10
2018-05-26T06:15:22.503Z,18.00
2018-05-26T06:18:19.626Z,17.90
2018-05-26T06:21:16.796Z,18.20
2018-05-26T06:24:14.812Z,18.50
2018-05-26T06:27:12.709Z,18.60
2018-05-26T06:30:10.685Z,18.70
2018-05-26T06:33:07.858Z,18.70
2018-05-26T06:36:05.680Z,18.90
2018-05-26T06:39:03.575Z,19.00
2018-05-26T06:42:00.668Z,19.10
2018-05-26T06:44:58.503Z,19.30
2018-05-26T06:47:56.529Z,19.50
2018-05-26T06:50:53.545Z,19.80
2018-05-26T06:53:51.333Z,21.60
2018-05-26T06:56:48.437Z,22.60
2018-05-26T06:59:45.531Z,23.80
2018-05-26T07:02:44.508Z,25.40
2018-05-26T07:05:42.581Z,26.10
2018-05-26T07:08:41.618Z,25.90
2018-05-26T07:11:38.712Z,26.90
2018-05-26T07:14:35.860Z,26.80
2018-05-26T07:17:33.786Z,27.10
2018-05-26T07:20:31.771Z,27.30
2018-05-26T07:23:30.416Z,27.50
2018-05-26T07:26:28.237Z,27.50
2018-05-26T07:29:26.232Z,27.90
2018-05-26T07:32:24.333Z,28.10
2018-05-26T07:35:21.640Z,27.10
2018-05-26T07:38:19.461Z,27.60
2018-05-26T07:41:16.788Z,27.50
2018-05-26T07:44:14.025Z,28.30
2018-05-26T07:47:12.927Z,28.40
2018-05-26T07:50:11.600Z,27.40
2018-05-26T07:53:09.497Z,28.10
2018-05-26T07:56:07.448Z,27.70
2018-05-26T07:59:06.961Z,27.50
2018-05-26T08:02:04.838Z,27.50
2018-05-26T08:05:02.740Z,27.20
2018-05-26T08:08:00.616Z,27.20
2018-05-26T08:10:58.414Z,27.90
2018-05-26T08:13:57.197Z,28.40
2018-05-26T08:16:55.126Z,28.80
2018-05-26T08:19:53.113Z,27.70
2018-05-26T08:22:51.006Z,27.60
2018-05-26T08:25:48.863Z,27.70
2018-05-26T08:28:46.625Z,27.00
2018-05-26T08:31:44.508Z,27.10
2018-05-26T08:34:42.405Z,27.80
2018-05-26T08:37:39.500Z,27.70
2018-05-26T08:40:37.722Z,26.70
2018-05-26T08:43:36.617Z,26.80
2018-05-26T08:46:34.640Z,26.20
2018-05-26T08:49:32.351Z,26.00
2018-05-26T08:52:30.238Z,25.40
2018-05-26T08:55:28.850Z,25.00
2018-05-26T08:58:26.887Z,24.70
2018-05-26T09:01:24.884Z,25.00
2018-05-26T09:04:22.747Z,25.30
2018-05-26T09:07:20.805Z,25.80
2018-05-26T09:10:18.627Z,26.40
2018-05-26T09:13:16.893Z,27.20
2018-05-26T09:16:14.949Z,26.30
2018-05-26T09:19:13.772Z,27.40
2018-05-26T09:22:11.728Z,28.10
2018-05-26T09:25:09.770Z,28.00
2018-05-26T09:28:08.604Z,27.90
2018-05-26T09:31:06.291Z,28.30
2018-05-26T09:34:04.321Z,28.60
2018-05-26T09:37:02.186Z,28.40
2018-05-26T09:39:59.769Z,29.00
2018-05-26T09:42:57.017Z,29.00
2018-05-26T09:45:54.858Z,29.00
2018-05-26T09:48:54.354Z,29.40
2018-05-26T09:51:51.789Z,29.40
2018-05-26T09:54:49.548Z,30.20
2018-05-26T09:57:47.683Z,29.70
2018-05-26T10:00:46.446Z,29.80
2018-05-26T10:03:44.300Z,28.90
2018-05-26T10:06:41.406Z,29.60
2018-05-26T10:09:38.487Z,30.10
2018-05-26T10:12:36.599Z,30.20
2018-05-26T10:15:34.701Z,30.80
2018-05-26T10:18:31.717Z,30.40
2018-05-26T10:21:29.575Z,30.20
2018-05-26T10:24:27.675Z,30.30
2018-05-26T10:27:25.572Z,30.30
2018-05-26T10:30:23.528Z,30.20
2018-05-26T10:33:20.682Z,30.30
2018-05-26T10:36:17.843Z,30.20
2018-05-26T10:39:15.635Z,30.10
2018-05-26T10:42:12.647Z,30.10
2018-05-26T10:45:10.764Z,30.50
2018-05-26T10:48:09.640Z,28.70
2018-05-26T10:51:07.640Z,28.70
2018-05-26T10:54:05.543Z,30.10
2018-05-26T10:57:03.455Z,31.20
2018-05-26T11:00:02.303Z,31.40
2018-05-26T11:03:01.263Z,31.20
2018-05-26T11:05:59.648Z,31.20
2018-05-26T11:08:57.225Z,31.10
2018-05-26T11:11:55.855Z,31.30
2018-05-26T11:14:52.916Z,31.80
2018-05-26T11:17:50.286Z,30.60
2018-05-26T11:20:47.140Z,30.50
2018-05-26T11:23:45.000Z,30.70
2018-05-26T11:26:42.045Z,30.60
2018-05-26T11:29:39.802Z,29.80
2018-05-26T11:32:37.091Z,30.50
2018-05-26T11:35:35.286Z,31.20
2018-05-26T11:38:32.944Z,31.40
2018-05-26T11:41:30.816Z,30.80
2018-05-26T11:44:29.625Z,31.00
2018-05-26T11:47:27.579Z,31.00
2018-05-26T11:50:25.337Z,30.80
2018-05-26T11:53:22.496Z,30.50
2018-05-26T11:56:20.188Z,31.60
2018-05-26T11:59:17.992Z,31.40
2018-05-26T12:02:16.388Z,31.50
2018-05-26T12:05:13.807Z,31.60
2018-05-26T12:08:12.205Z,30.80
2018-05-26T12:11:09.464Z,31.40
2018-05-26T12:14:07.275Z,31.80
2018-05-26T12:17:05.389Z,31.30
2018-05-26T12:20:03.341Z,32.00
2018-05-26T12:23:01.148Z,32.10
2018-05-26T12:25:59.965Z,31.40
2018-05-26T12:28:57.039Z,31.50
2018-05-26T12:31:55.015Z,31.20
2018-05-26T12:34:53.026Z,31.30
2018-05-26T12:37:50.891Z,31.90
2018-05-26T12:40:48.780Z,32.00
2018-05-26T12:43:47.448Z,31.30
2018-05-26T12:46:44.805Z,31.50
2018-05-26T12:49:42.707Z,31.80
2018-05-26T12:52:39.932Z,32.10
2018-05-26T12:55:37.967Z,31.70
2018-05-26T12:58:35.966Z,31.50
2018-05-26T13:01:33.858Z,31.10
2018-05-26T13:04:31.954Z,31.40
2018-05-26T13:07:30.003Z,31.30
2018-05-26T13:10:27.773Z,31.20
2018-05-26T13:13:25.669Z,30.30
2018-05-26T13:16:25.508Z,30.30
2018-05-26T13:19:23.334Z,30.10
2018-05-26T13:22:21.277Z,29.70
2018-05-26T13:25:19.111Z,29.80
2018-05-26T13:28:17.415Z,29.60
2018-05-26T13:31:15.131Z,29.60
2018-05-26T13:34:14.771Z,29.60
2018-05-26T13:37:12.432Z,29.60
2018-05-26T13:40:10.236Z,29.60
2018-05-26T13:43:08.139Z,29.50
2018-05-26T13:46:07.148Z,29.40
2018-05-26T13:49:05.352Z,29.00
2018-05-26T13:52:02.770Z,29.00
2018-05-26T13:55:01.256Z,29.20
2018-05-26T13:58:00.744Z,29.40
2018-05-26T14:00:58.506Z,29.70
2018-05-26T14:03:56.468Z,29.70
2018-05-26T14:06:54.667Z,29.40
2018-05-26T14:09:52.491Z,29.40
2018-05-26T14:12:50.407Z,29.10
2018-05-26T14:15:48.221Z,29.10
2018-05-26T14:18:46.359Z,28.90
2018-05-26T14:21:43.588Z,28.70
2018-05-26T14:24:40.701Z,28.60
2018-05-26T14:27:38.765Z,28.60
2018-05-26T14:30:35.869Z,28.70
2018-05-26T14:33:33.818Z,29.10
2018-05-26T14:36:32.354Z,29.00
2018-05-26T14:39:30.236Z,29.00
2018-05-26T14:42:28.216Z,28.80
2018-05-26T14:45:26.123Z,28.80
2018-05-26T14:48:23.295Z,28.40
2018-05-26T14:51:22.308Z,28.30
2018-05-26T14:54:20.091Z,28.40
2018-05-26T14:57:18.017Z,28.10
2018-05-26T15:00:15.771Z,28.50
2018-05-26T15:03:13.918Z,28.50
2018-05-26T15:06:11.862Z,28.50
2018-05-26T15:09:09.873Z,28.10
2018-05-26T15:12:07.925Z,28.30
2018-05-26T15:15:05.892Z,28.50
2018-05-26T15:18:03.776Z,28.50
2018-05-26T15:21:01.537Z,28.10
2018-05-26T15:23:59.519Z,27.90
2018-05-26T15:26:57.299Z,27.80
2018-05-26T15:29:55.421Z,28.10
2018-05-26T15:32:53.012Z,27.50
2018-05-26T15:35:52.012Z,27.40
2018-05-26T15:38:50.583Z,27.20
2018-05-26T15:41:48.614Z,27.20
2018-05-26T15:44:46.562Z,27.00
2018-05-26T15:47:43.805Z,27.00
2018-05-26T15:50:41.899Z,26.90
2018-05-26T15:53:39.764Z,26.80
2018-05-26T15:56:37.616Z,26.90
2018-05-26T15:59:35.578Z,26.90
2018-05-26T16:02:33.592Z,27.00
2018-05-26T16:05:31.339Z,27.10
2018-05-26T16:08:29.059Z,26.90
2018-05-26T16:11:26.802Z,26.60
2018-05-26T16:14:24.800Z,26.50
2018-05-26T16:17:21.801Z,26.50
2018-05-26T16:20:19.945Z,26.30
2018-05-26T16:23:17.720Z,26.20
2018-05-26T16:26:15.753Z,26.10
2018-05-26T16:29:14.607Z,26.10
2018-05-26T16:32:12.413Z,25.90
2018-05-26T16:35:09.432Z,26.00
2018-05-26T16:38:07.388Z,25.90
2018-05-26T16:41:05.308Z,26.00
2018-05-26T16:44:02.385Z,25.80
2018-05-26T16:47:00.186Z,25.50
2018-05-26T16:49:57.754Z,25.50
2018-05-26T16:52:54.983Z,25.50
2018-05-26T16:55:53.952Z,25.20
2018-05-26T16:58:51.111Z,25.20
2018-05-26T17:01:49.051Z,25.10
2018-05-26T17:04:47.933Z,25.10
2018-05-26T17:07:45.757Z,25.30
2018-05-26T17:10:43.712Z,25.10
2018-05-26T17:13:41.698Z,24.90
2018-05-26T17:16:39.305Z,24.90
2018-05-26T17:19:37.435Z,24.70
2018-05-26T17:22:34.899Z,24.60
2018-05-26T17:25:32.804Z,24.40
2018-05-26T17:28:29.894Z,24.40
2018-05-26T17:31:27.706Z,24.40
2018-05-26T17:34:24.799Z,24.40
2018-05-26T17:37:22.532Z,24.40
2018-05-26T17:40:21.298Z,24.20
2018-05-26T17:43:18.968Z,24.20
2018-05-26T17:46:18.099Z,24.20
2018-05-26T17:49:16.237Z,24.30
2018-05-26T17:52:14.438Z,24.30
2018-05-26T17:55:12.395Z,23.90
2018-05-26T17:58:10.258Z,23.70
2018-05-26T18:01:07.976Z,23.40
2018-05-26T18:04:06.675Z,22.90
2018-05-26T18:07:05.762Z,22.80
2018-05-26T18:10:03.532Z,22.70
2018-05-26T18:13:02.223Z,22.50
2018-05-26T18:16:00.248Z,22.40
2018-05-26T18:18:57.993Z,22.40
2018-05-26T18:21:55.782Z,22.30
2018-05-26T18:24:53.620Z,22.00
2018-05-26T18:27:51.602Z,21.90
2018-05-26T18:30:48.836Z,21.80
2018-05-26T18:33:46.943Z,21.50
2018-05-26T18:36:44.922Z,21.50
2018-05-26T18:39:42.808Z,21.10
2018-05-26T18:42:40.012Z,20.90
2018-05-26T18:45:37.063Z,20.80
2018-05-26T18:48:35.125Z,20.70
2018-05-26T18:51:33.099Z,20.80
2018-05-26T18:54:30.487Z,20.80
2018-05-26T18:57:27.894Z,20.70
2018-05-26T19:00:25.984Z,20.80
2018-05-26T19:03:23.892Z,20.80
2018-05-26T19:06:21.975Z,20.80
2018-05-26T19:09:19.682Z,20.70
2018-05-26T19:12:18.085Z,20.70
2018-05-26T19:15:15.186Z,20.70
2018-05-26T19:18:12.470Z,20.70
2018-05-26T19:21:10.454Z,20.50
2018-05-26T19:24:08.479Z,20.50
2018-05-26T19:27:06.429Z,20.30
2018-05-26T19:30:04.471Z,20.30
2018-05-26T19:33:01.691Z,20.30
2018-05-26T19:35:58.956Z,20.30
2018-05-26T19:38:57.808Z,20.30
2018-05-26T19:41:55.770Z,20.20
2018-05-26T19:44:53.500Z,20.20
2018-05-26T19:47:50.640Z,20.20
2018-05-26T19:50:48.638Z,20.30
2018-05-26T19:53:46.670Z,20.10
2018-05-26T19:56:44.705Z,20.00
2018-05-26T19:59:42.119Z,20.10
2018-05-26T20:02:40.323Z,20.00
2018-05-26T20:05:38.394Z,20.00
2018-05-26T20:08:36.472Z,20.00
2018-05-26T20:11:33.904Z,19.90
2018-05-26T20:14:31.789Z,19.90
2018-05-26T20:17:29.815Z,20.00
2018-05-26T20:20:27.803Z,19.90
2018-05-26T20:23:25.096Z,19.90
2018-05-26T20:26:23.164Z,19.60
2018-05-26T20:29:21.125Z,19.60
2018-05-26T20:32:19.155Z,19.50
2018-05-26T20:35:17.045Z,19.50
2018-05-26T20:38:16.418Z,19.60
2018-05-26T20:41:14.539Z,19.70
2018-05-26T20:44:11.937Z,19.60
2018-05-26T20:47:09.615Z,19.50
2018-05-26T20:50:07.591Z,19.40
2018-05-26T20:53:05.539Z,19.40
2018-05-26T20:56:03.550Z,19.50
2018-05-26T20:59:01.374Z,19.50
2018-05-26T21:01:59.199Z,19.40
2018-05-26T21:04:56.335Z,19.40
2018-05-26T21:07:54.288Z,19.30
2018-05-26T21:10:52.185Z,19.20
2018-05-26T21:13:50.419Z,19.00
2018-05-26T21:16:48.551Z,19.00
2018-05-26T21:19:46.517Z,18.90
2018-05-26T21:22:44.649Z,18.70
2018-05-26T21:25:42.797Z,18.60
2018-05-26T21:28:40.860Z,18.40
2018-05-26T21:31:39.322Z,18.30
2018-05-26T21:34:37.322Z,18.20
2018-05-26T21:37:36.366Z,18.20
2018-05-26T21:40:33.623Z,18.20
2018-05-26T21:43:31.735Z,18.10
2018-05-26T21:46:29.553Z,18.00
2018-05-26T21:49:27.347Z,17.90
2018-05-26T21:52:25.268Z,17.80
2018-05-26T21:55:24.126Z,17.80
2018-05-26T21:58:21.216Z,17.70
2018-05-26T22:01:19.214Z,17.60
2018-05-26T22:04:18.222Z,17.60
2018-05-26T22:07:16.705Z,17.60
2018-05-26T22:10:15.059Z,17.50
2018-05-26T22:13:12.901Z,17.50
2018-05-26T22:16:10.137Z,17.50
2018-05-26T22:19:08.647Z,17.50
2018-05-26T22:22:06.805Z,17.40
2018-05-26T22:25:04.929Z,17.40
2018-05-26T22:28:04.198Z,17.40
2018-05-26T22:31:02.172Z,17.40
2018-05-26T22:33:59.421Z,17.40
2018-05-26T22:36:57.473Z,17.30
2018-05-26T22:39:55.309Z,17.20
2018-05-26T22:42:52.863Z,17.20
2018-05-26T22:45:50.893Z,17.10
2018-05-26T22:48:48.723Z,17.10
2018-05-26T22:51:46.721Z,17.00
2018-05-26T22:54:43.986Z,17.00
2018-05-26T22:57:41.976Z,16.90
2018-05-26T23:00:42.065Z,16.80
2018-05-26T23:03:39.999Z,16.80
2018-05-26T23:06:37.778Z,16.70
2018-05-26T23:09:35.998Z,16.60
2018-05-26T23:12:33.504Z,16.60
2018-05-26T23:15:31.423Z,16.60
2018-05-26T23:18:28.502Z,16.50
2018-05-26T23:21:25.779Z,16.60
2018-05-26T23:24:23.669Z,16.60
2018-05-26T23:27:21.870Z,16.30
2018-05-26T23:30:19.752Z,16.40
2018-05-26T23:33:17.026Z,16.30
2018-05-26T23:36:14.865Z,16.20
2018-05-26T23:39:12.023Z,16.10
2018-05-26T23:42:09.995Z,16.00
2018-05-26T23:45:08.117Z,15.80
2018-05-26T23:48:06.098Z,15.80
2018-05-26T23:51:04.044Z,15.80
2018-05-26T23:54:01.198Z,15.70
2018-05-26T23:56:58.342Z,15.60
2018-05-26T23:59:56.372Z,15.60
